Terminal Aerodrome Forecast
Issued by NWS

Home | Current Version | Previous Version | Text Only | Print | Product List | Glossary On
Versions: 1 2 3 4 5 6 7 8 9 10 11 12 13 14 15 16
000
FTUS41 KCAR 111700 RRA
TAFHUL
TAF
KHUL 111747Z 1118/1218 28008KT P6SM SCT070
     FM120000 24004KT P6SM SKC
     FM121500 25007KT P6SM SKC=

USA.gov is the U.S. government's official web portal to all federal, state and local government web resources and services.